Flight Track Log - Related Links

Times and Time Zones

All times are in EDT time to prevent confusion due to time zone crossing. See the FLG3314 flight status page for this flight to view local times or setup timezone preferences in your user account.

Time Position Orientation Groundspeed Altitude Reporting Facility
EDT Latitude Longitude Course Direction KTS MPH feet Rate Location/Type
Tue 06:32:19 PM 41.7331 -71.4192 357° North 145 167 700  Level Boston Center
Tue 06:32:56 PM 41.7603 -71.4214 357° North 160 184 2,000 2,110 Climbing Boston Center
Tue 06:33:50 PM 41.8061 -71.4431 341° North 209 241 3,900 2,039 Climbing Boston Center
Tue 06:34:39 PM 41.8400 -71.4983 309° West 248 285 5,500 2,642 Climbing Boston Center
Tue 06:35:39 PM 41.8719 -71.5953 294° West 275 316 8,700 2,250 Climbing Boston Center
Tue 06:36:39 PM 41.9083 -71.6981 295° West 302 348 10,000 1,736 Climbing Boston Center
Tue 06:37:40 PM 41.9878 -71.7531 333° Northwest 313 360 12,200 2,459 Climbing Boston Center
Tue 06:38:41 PM 42.0675 -71.8361 322° Northwest 321 369 15,000 2,441 Climbing Boston Center
Tue 06:39:38 PM 42.0828 -71.9731 279° West 346 398 17,000 2,051 Climbing Boston Center
Tue 06:40:38 PM 42.0978 -72.1128 278° West 371 427 19,000 1,785 Climbing Boston Center
Tue 06:41:39 PM 42.1106 -72.2442 278° West 386 444 20,600 1,686 Climbing Boston Center
Tue 06:42:39 PM 42.1358 -72.3869 283° West 397 457 22,400 1,736 Climbing Boston Center
Tue 06:43:40 PM 42.1753 -72.5297 290° West 397 457 24,100 1,587 Climbing Boston Center
Tue 06:44:40 PM 42.2147 -72.6728 290° West 402 463 25,600 1,475 Climbing Boston Center
Tue 06:45:38 PM 42.2558 -72.8189 291° West 407 468 27,000 1,513 Climbing Boston Center
Tue 06:46:39 PM 42.3053 -72.9678 294° West 412 474 28,600 1,736 Climbing Boston Center
Tue 06:47:39 PM 42.3525 -73.1086 294° West 417 480 30,500 1,686 Climbing Boston Center
Tue 06:48:40 PM 42.3911 -73.2553 290° West 412 474 32,000 1,450 Climbing Boston Center
Tue 06:49:39 PM 42.4336 -73.4217 289° West 428 493 33,400 1,563 Climbing Boston Center
Tue 06:50:39 PM 42.4742 -73.5603 292° West 421 484 35,100 1,289 Climbing Boston Center
Tue 06:51:40 PM 42.5103 -73.6961 290° West 404 465 36,000 454 Climbing Boston Center
Tue 06:52:38 PM 42.5503 -73.8381 291° West 398 458 36,000  Level Boston Center
Tue 06:53:38 PM 42.5881 -73.9797 290° West 398 458 36,000  Level Boston Center
Tue 06:54:39 PM 42.6194 -74.1047 289° West 393 452 36,000  Level Boston Center
Tue 06:55:40 PM 42.6464 -74.2494 284° West 393 452 36,000 298 Level Boston Center
Tue 06:56:40 PM 42.6586 -74.4022 276° West 399 459 36,600 661 Climbing Boston Center
Tue 06:57:38 PM 42.6728 -74.5467 278° West 399 459 37,300 706 Climbing Boston Center
Tue 06:58:39 PM 42.6822 -74.6969 275° West 399 459 38,000 344 Climbing Boston Center
Tue 06:59:40 PM 42.6981 -74.8442 278° West 399 459 38,000  Level Boston Center
Tue 07:00:38 PM 42.7219 -74.9950 282° West 406 467 38,000  Level Boston Center
Tue 07:01:38 PM 42.7456 -75.1431 282° West 411 473 38,000  Level Boston Center
Tue 07:02:39 PM 42.7692 -75.2883 283° West 405 466 38,000  Level Boston Center
Tue 07:03:39 PM 42.7903 -75.4364 281° West 405 466 38,000  Level Boston Center
Tue 07:04:39 PM 42.8156 -75.5822 283° West 400 460 38,000  Level Boston Center
Tue 07:06:54 PM 42.8661 -75.9169 282° West 409 471 38,000  Level Cleveland Center
Tue 07:07:54 PM 42.8886 -76.0628 282° West 409 471 38,000  Level Cleveland Center
Tue 07:09:04 PM 42.9167 -76.2167 284° West 390 449 38,000  Level Toronto Center
Tue 07:09:54 PM 42.9328 -76.3461 280° West 399 459 38,000  Level Cleveland Center
Tue 07:10:54 PM 42.9528 -76.4953 280° West 399 459 38,000  Level Cleveland Center
Tue 07:11:54 PM 42.9744 -76.6414 282° West 399 459 38,000  Level Cleveland Center
Tue 07:12:54 PM 42.9983 -76.7961 282° West 394 453 38,000  Level Cleveland Center
Tue 07:13:54 PM 43.0400 -76.9242 294° West 383 441 38,000  Level Cleveland Center
Tue 07:14:54 PM 43.0961 -77.0461 302° West 377 434 38,000  Level Cleveland Center
Tue 07:15:54 PM 43.1494 -77.1625 302° West 366 421 38,000  Level Cleveland Center
Tue 07:16:54 PM 43.2050 -77.2792 303° West 366 421 38,000  Level Cleveland Center
Tue 07:17:54 PM 43.2606 -77.3989 303° West 366 421 38,000  Level Cleveland Center
Tue 07:18:54 PM 43.3136 -77.5158 302° West 371 427 38,000  Level Cleveland Center
Tue 07:19:54 PM 43.3689 -77.6303 304° West 371 427 38,000  Level Cleveland Center
Tue 07:20:54 PM 43.4217 -77.7478 302° West 371 427 38,000  Level Cleveland Center
Tue 07:21:54 PM 43.4786 -77.8653 304° West 371 427 38,000  Level Cleveland Center
Tue 07:22:54 PM 43.5292 -77.9719 303° West 371 427 38,000  Level Cleveland Center
Tue 07:23:54 PM 43.5836 -78.0872 303° West 371 427 38,000  Level Cleveland Center
Tue 07:24:54 PM 43.6383 -78.2083 302° West 371 427 38,000  Level Cleveland Center
Tue 07:25:54 PM 43.6908 -78.3269 302° West 366 421 38,000  Level Cleveland Center
Tue 07:28:04 PM 43.8000 -78.5667 302° West 370 426 38,000  Level Toronto Center
Tue 07:29:04 PM 43.8500 -78.7000 298° West 370 426 38,000  Level Toronto Center
Tue 07:30:04 PM 43.9000 -78.8167 301° West 370 426 38,000  Level Toronto Center
Tue 07:31:04 PM 43.9500 -78.9667 295° West 370 426 38,000  Level Toronto Center
Tue 07:32:04 PM 43.9833 -79.0833 292° West 380 437 38,000  Level Toronto Center
Tue 07:33:04 PM 44.0167 -79.2333 287° West 380 437 38,000  Level Toronto Center
Tue 07:34:04 PM 44.0333 -79.3833 279° West 380 437 38,000  Level Toronto Center
Tue 07:35:04 PM 44.0667 -79.5167 289° West 380 437 38,000  Level Toronto Center
Tue 07:36:04 PM 44.1000 -79.6500 289° West 380 437 38,000  Level Toronto Center
Tue 07:37:04 PM 44.1167 -79.8000 279° West 380 437 38,000  Level Toronto Center
Tue 07:38:04 PM 44.1500 -79.9333 289° West 380 437 38,000  Level Toronto Center
Tue 07:39:04 PM 44.1667 -80.1000 278° West 380 437 38,000  Level Toronto Center
Tue 07:40:04 PM 44.2000 -80.2333 289° West 380 437 38,000  Level Toronto Center
Tue 07:41:04 PM 44.2333 -80.3833 287° West 380 437 38,000  Level Toronto Center
Tue 07:42:04 PM 44.2500 -80.5167 280° West 380 437 38,000  Level Toronto Center
Tue 07:43:04 PM 44.2833 -80.6500 289° West 380 437 38,000  Level Toronto Center
Tue 07:44:04 PM 44.3167 -80.8000 287° West 390 449 38,000  Level Toronto Center
Tue 07:45:04 PM 44.3333 -80.9333 280° West 380 437 38,000  Level Toronto Center
Tue 07:46:04 PM 44.3500 -81.1000 278° West 380 437 38,000  Level Toronto Center
Tue 07:47:04 PM 44.3833 -81.2500 287° West 380 437 38,000  Level Toronto Center
Tue 07:48:04 PM 44.4167 -81.3833 289° West 390 449 38,000  Level Toronto Center
Tue 07:49:04 PM 44.4333 -81.5167 280° West 390 449 38,000  Level Toronto Center
Tue 07:50:04 PM 44.4667 -81.6667 287° West 390 449 38,000  Level Toronto Center
Tue 07:51:04 PM 44.5000 -81.8000 289° West 390 449 38,000  Level Toronto Center
Tue 07:52:04 PM 44.5167 -81.9667 278° West 390 449 38,000  Level Toronto Center
Tue 07:53:04 PM 44.5500 -82.1167 287° West 390 449 38,000  Level Toronto Center
Tue 07:54:04 PM 44.5667 -82.2500 280° West 390 449 38,000  Level Toronto Center
Tue 07:55:04 PM 44.6000 -82.4000 287° West 390 449 38,000  Level Toronto Center
Tue 07:56:04 PM 44.6333 -82.5667 286° West 390 449 38,000  Level Toronto Center
Tue 07:57:04 PM 44.6500 -82.7000 280° West 390 449 38,000  Level Toronto Center
Tue 07:58:04 PM 44.6667 -82.8500 279° West 380 437 38,000  Level Toronto Center
Tue 07:59:04 PM 44.7000 -82.9833 289° West 390 449 38,000  Level Toronto Center
Tue 07:59:36 PM 44.7317 -83.0547 302° West 392 451 38,000  Level Minneapolis Center
Tue 08:00:37 PM 44.7531 -83.1722 284° West 391 450 38,000  Level Minneapolis Center
Tue 08:01:40 PM 44.7906 -83.3781 284° West 390 449 38,000  Level Minneapolis Center
Tue 08:02:41 PM 44.8192 -83.5269 285° West 391 450 38,000  Level Minneapolis Center
Tue 08:03:43 PM 44.8489 -83.6731 286° West 391 450 38,000  Level Minneapolis Center
Tue 08:04:45 PM 44.8781 -83.8206 286° West 391 450 38,000  Level Minneapolis Center
Tue 08:05:47 PM 44.9067 -83.9692 285° West 392 451 38,000  Level Minneapolis Center
Tue 08:06:49 PM 44.9339 -84.1189 284° West 394 453 38,000  Level Minneapolis Center
Tue 08:07:51 PM 44.9650 -84.3008 284° West 397 457 38,000  Level Minneapolis Center
Tue 08:08:53 PM 44.9911 -84.4511 284° West 396 456 38,000  Level Minneapolis Center
Tue 08:10:07 PM 45.0175 -84.6347 282° West 399 459 38,000  Level Minneapolis Center
Tue 08:11:09 PM 45.0250 -84.7925 274° West 406 467 38,000  Level Minneapolis Center
Tue 08:12:10 PM 45.0239 -84.9517 269° West 407 468 38,000  Level Minneapolis Center
Tue 08:13:12 PM 45.0256 -85.1097 271° West 405 466 38,000  Level Minneapolis Center
Tue 08:14:14 PM 45.0272 -85.2689 271° West 406 467 38,000  Level Minneapolis Center
Tue 08:15:16 PM 45.0269 -85.4586 270° West 405 466 38,000  Level Minneapolis Center
Tue 08:16:18 PM 45.0278 -85.6158 270° West 404 465 38,000  Level Minneapolis Center
Tue 08:17:20 PM 45.0264 -85.7739 269° West 404 465 38,000  Level Minneapolis Center
Tue 08:18:22 PM 45.0281 -85.9331 271° West 406 467 38,000  Level Minneapolis Center
Tue 08:19:24 PM 45.0275 -86.0906 270° West 404 465 38,000  Level Minneapolis Center
Tue 08:20:26 PM 45.0281 -86.2797 270° West 403 464 38,000  Level Minneapolis Center
Tue 08:21:27 PM 45.0275 -86.4361 270° West 401 461 38,000  Level Minneapolis Center
Tue 08:22:29 PM 45.0264 -86.5931 269° West 400 460 38,000  Level Minneapolis Center
Tue 08:23:31 PM 45.0253 -86.7650 270° West 398 458 38,000  Level Minneapolis Center
Tue 08:24:33 PM 45.0236 -86.9267 269° West 398 458 38,000  Level Minneapolis Center
Tue 08:25:35 PM 45.0225 -87.0833 269° West 399 459 38,000  Level Minneapolis Center
Tue 08:26:37 PM 45.0200 -87.2381 269° West 396 456 38,000  Level Minneapolis Center
Tue 08:27:39 PM 45.0183 -87.3933 269° West 397 457 38,000  Level Minneapolis Center
Tue 08:28:41 PM 45.0158 -87.5478 269° West 396 456 38,000  Level Minneapolis Center
Tue 08:29:43 PM 45.0144 -87.7022 269° West 394 453 38,000  Level Minneapolis Center
Tue 08:30:45 PM 45.0108 -87.8878 268° West 395 455 38,000  Level Minneapolis Center
Tue 08:31:47 PM 45.0081 -88.0433 269° West 396 456 38,000  Level Minneapolis Center
Tue 08:32:50 PM 45.0058 -88.1983 269° West 396 456 38,000  Level Minneapolis Center
Tue 08:33:52 PM 45.0028 -88.3725 269° West 397 457 38,000  Level Minneapolis Center
Tue 08:34:54 PM 45.0000 -88.5283 269° West 398 458 38,000  Level Minneapolis Center
Tue 08:35:56 PM 44.9961 -88.6839 268° West 397 457 38,000  Level Minneapolis Center
Tue 08:36:58 PM 44.9931 -88.8406 268° West 398 458 38,000  Level Minneapolis Center
Tue 08:38:00 PM 44.9872 -88.9978 267° West 401 461 38,000 -290 Level Minneapolis Center
Tue 08:39:02 PM 44.9828 -89.1825 268° West 404 465 37,400 -726 Descending Minneapolis Center
Tue 08:40:04 PM 44.9906 -89.3344 274° West 396 456 36,500 -871 Descending Minneapolis Center
Tue 08:41:06 PM 45.0089 -89.4897 280° West 400 460 35,600 -919 Descending Minneapolis Center
Tue 08:42:08 PM 45.0264 -89.6447 279° West 401 461 34,600 -1,056 Descending Minneapolis Center
Tue 08:43:11 PM 45.0467 -89.8189 279° West 400 460 33,400 -1,152 Descending Minneapolis Center
Tue 08:44:13 PM 45.0553 -89.9767 274° West 402 463 32,200 -677 Descending Minneapolis Center
Tue 08:45:15 PM 45.0606 -90.1306 273° West 394 453 32,000 -97 Descending Minneapolis Center
Tue 08:46:17 PM 45.0592 -90.2864 269° West 395 455 32,000  Level Minneapolis Center
Tue 08:47:19 PM 45.0589 -90.4467 270° West 404 465 32,000  Level Minneapolis Center
Tue 08:48:21 PM 45.0603 -90.6078 271° West 409 471 32,000 -968 Level Minneapolis Center
Tue 08:49:23 PM 45.0592 -90.7983 270° West 404 465 30,000 -1,790 Descending Minneapolis Center
Tue 08:50:25 PM 45.0589 -90.9375 270° West 404 465 28,300 -1,839 Descending Minneapolis Center
Tue 08:51:27 PM 45.0581 -91.0936 270° West 400 460 26,200 -1,645 Descending Minneapolis Center
Tue 08:52:29 PM 45.0558 -91.2742 269° West 389 448 24,900 -1,645 Descending Minneapolis Center
Tue 08:53:31 PM 45.0558 -91.4258 270° West 387 445 22,800 -2,016 Descending Minneapolis Center
Tue 08:54:34 PM 45.0544 -91.5750 269° West 385 443 20,700 -2,016 Descending Minneapolis Center
Tue 08:55:36 PM 45.0561 -91.7183 271° West 371 427 18,600 -1,897 Descending Minneapolis Center
Tue 08:56:50 PM 45.0547 -91.8553 269° West 356 410 16,400 -2,294 Descending Minneapolis Center
Tue 08:57:52 PM 45.0536 -92.0469 270° West 349 402 13,400 -2,391 Descending Minneapolis Center
Tue 08:58:58 PM 45.0514 -92.1825 269° West 346 398 11,300 -1,125 Descending Minneapolis Center
Tue 09:00:00 PM 45.0461 -92.3172 267° West 343 395 11,000 -290 Descending Minneapolis Center
Tue 09:01:02 PM 45.0244 -92.4461 257° West 341 392 10,700 -1,065 Descending Minneapolis Center
Tue 09:02:04 PM 44.9878 -92.5711 248° West 294 338 8,800 -1,742 Descending Minneapolis Center
Tue 09:03:06 PM 44.9367 -92.6569 230° Southwest 285 328 7,100 -871 Descending Minneapolis Center
Tue 09:04:08 PM 44.8864 -92.7403 230° Southwest 280 322 7,000 -581 Descending Minneapolis Center
Tue 09:05:10 PM 44.8400 -92.8186 230° Southwest 264 304 5,900 -1,016 Descending Minneapolis Center
Tue 09:06:12 PM 44.7753 -92.8419 194° South 247 284 4,900 -581 Descending Minneapolis Center
Tue 09:07:14 PM 44.7578 -92.9100 250° West 190 219 4,700 -339 Descending Minneapolis Center
Tue 09:08:16 PM 44.7900 -92.9842 301° West 185 213 4,200 -726 Descending Minneapolis Center
Tue 09:09:18 PM 44.8153 -93.0433 301° West 179 206 3,200 -871 Descending Minneapolis Center
Tue 09:10:20 PM 44.8386 -93.0958 302° West 162 186 2,400 -774 Descending Minneapolis Center
Tue 09:11:22 PM 44.8586 -93.1419 301° West 141 162 1,600 -774 Descending Minneapolis Center
Tue 09:13:00 PM 44.8667 -93.2167 245° Southwest  Level FlightAware Approximate
Tue 09:20:00 PM 44.8820 -93.2218 245° Southwest  Level Estimated

Login

Don't have an account? Register now (free) for customized features, flight alerts, and more!